Time;durP1;ratioP1;P1;durP2;ratioP2;P2;SDS_P1;SDS_P2;PMS_P1;PMS_P2;Temp;Humidity;BMP_temperature;BMP_pressure;BME280_temperature;BME280_humidity;BME280_pressure;Samples;Min_cycle;Max_cycle;Signal;HPM_P1;HPM_P2
2023/05/16 00:00:08;;;;;;;29.30;19.20;;;14.80;99.90;;;;;;4934521;29;20027;-75
2023/05/16 00:02:38;;;;;;;21.38;17.02;;;14.80;99.90;;;;;;4934274;29;20028;-72
2023/05/16 00:05:06;;;;;;;25.95;18.20;;;14.80;99.90;;;;;;4934406;29;20039;-74
2023/05/16 00:07:33;;;;;;;27.42;18.65;;;14.90;99.90;;;;;;4934099;29;20412;-73
2023/05/16 00:09:59;;;;;;;24.27;17.02;;;14.90;99.90;;;;;;4917202;29;20035;-74
2023/05/16 00:12:26;;;;;;;29.23;17.33;;;14.90;99.90;;;;;;4934236;29;20116;-76
2023/05/16 00:14:51;;;;;;;21.20;15.30;;;14.80;99.90;;;;;;4933675;29;20039;-73
2023/05/16 00:17:19;;;;;;;24.27;16.85;;;14.70;99.90;;;;;;4919182;29;20555;-76
2023/05/16 00:19:48;;;;;;;26.80;15.90;;;14.70;99.90;;;;;;4934232;29;20035;-76
2023/05/16 00:22:17;;;;;;;22.27;15.95;;;14.60;99.90;;;;;;4934287;29;20052;-75
2023/05/16 00:24:43;;;;;;;24.38;17.75;;;14.60;99.90;;;;;;4916124;29;20044;-76
2023/05/16 00:27:09;;;;;;;23.70;15.45;;;14.50;99.90;;;;;;4933638;29;20408;-73
2023/05/16 00:29:35;;;;;;;22.45;16.92;;;14.60;99.90;;;;;;4933495;29;20082;-75
2023/05/16 00:32:00;;;;;;;24.10;16.75;;;14.60;99.90;;;;;;4915879;29;20059;-76
2023/05/16 00:34:26;;;;;;;23.67;16.58;;;14.50;99.90;;;;;;4916908;29;20739;-76
2023/05/16 00:36:52;;;;;;;24.15;17.17;;;14.50;99.90;;;;;;4916304;29;20031;-73
2023/05/16 00:39:19;;;;;;;24.02;16.98;;;14.40;99.90;;;;;;4915688;29;20036;-74
2023/05/16 00:41:45;;;;;;;24.77;14.43;;;14.50;99.90;;;;;;4933167;29;20055;-76
2023/05/16 00:44:11;;;;;;;24.77;17.08;;;14.50;99.90;;;;;;4917020;29;20110;-77
2023/05/16 00:46:37;;;;;;;19.77;15.15;;;14.50;99.90;;;;;;4933577;29;20031;-74
2023/05/16 00:49:03;;;;;;;22.70;16.17;;;14.60;99.90;;;;;;4935191;29;20019;-74
2023/05/16 00:51:30;;;;;;;23.15;16.10;;;14.50;99.90;;;;;;4933447;29;20047;-74
2023/05/16 00:53:56;;;;;;;21.90;16.52;;;14.50;99.90;;;;;;4933104;29;20361;-76
2023/05/16 00:56:22;;;;;;;21.20;14.80;;;14.50;99.90;;;;;;4914745;29;20035;-74
2023/05/16 00:58:48;;;;;;;20.50;14.77;;;14.50;99.90;;;;;;4916437;29;20039;-75
2023/05/16 01:01:15;;;;;;;20.27;15.52;;;14.50;99.90;;;;;;4916685;29;20487;-76
2023/05/16 01:03:44;;;;;;;20.88;14.45;;;14.50;99.90;;;;;;4933464;29;20036;-76
2023/05/16 01:06:11;;;;;;;20.73;13.98;;;14.50;99.90;;;;;;4933585;29;20102;-77
2023/05/16 01:08:37;;;;;;;22.73;14.07;;;14.50;99.90;;;;;;4933166;29;20760;-76
2023/05/16 01:11:37;;;;;;;20.63;14.48;;;14.50;99.90;;;;;;4916389;29;20020;-74
2023/05/16 01:14:12;;;;;;;25.42;15.10;;;14.60;99.90;;;;;;4933586;29;20598;-75
2023/05/16 01:16:46;;;;;;;22.98;14.93;;;14.50;99.90;;;;;;4918037;29;20455;-74
2023/05/16 01:19:18;;;;;;;19.05;13.80;;;14.50;99.90;;;;;;4933471;29;20038;-73
2023/05/16 01:21:50;;;;;;;;;;;14.40;99.90;;;;;;4915971;29;20036;-74
2023/05/16 01:24:38;;;;;;;19.13;13.98;;;14.50;99.90;;;;;;4932395;29;19945;-74
2023/05/16 01:27:05;;;;;;;19.35;14.23;;;14.40;99.90;;;;;;4933391;29;20054;-73
2023/05/16 01:29:32;;;;;;;22.63;14.15;;;14.50;99.90;;;;;;4933463;29;20098;-77
2023/05/16 01:31:58;;;;;;;22.40;15.10;;;14.50;99.90;;;;;;4933809;29;20194;-76
2023/05/16 01:34:25;;;;;;;19.48;13.45;;;14.50;99.90;;;;;;4933166;29;20075;-76
2023/05/16 01:37:11;;;;;;;22.45;14.95;;;14.60;99.90;;;;;;4916270;29;20036;-76
2023/05/16 01:39:46;;;;;;;20.60;14.50;;;14.50;99.90;;;;;;4936884;29;20034;-74
2023/05/16 01:42:16;;;;;;;19.20;13.75;;;14.50;99.90;;;;;;4903934;29;20619;-76
2023/05/16 01:45:04;;;;;;;21.10;14.95;;;14.50;99.90;;;;;;4919712;29;20045;-74
2023/05/16 01:47:32;;;;;;;22.30;14.88;;;14.50;99.90;;;;;;4919823;29;20024;-74
2023/05/16 01:50:09;;;;;;;21.83;15.05;;;14.60;99.90;;;;;;4937698;29;20035;-74
2023/05/16 01:52:53;;;;;;;21.45;15.00;;;14.60;99.90;;;;;;4936707;29;20388;-77
2023/05/16 01:55:31;;;;;;;19.48;13.40;;;14.60;99.90;;;;;;4919573;29;20062;-77
2023/05/16 01:58:01;;;;;;;22.95;14.15;;;14.50;99.90;;;;;;4919719;29;20023;-74
2023/05/16 02:00:27;;;;;;;23.10;14.27;;;14.50;99.90;;;;;;4918624;29;20475;-75
2023/05/16 02:02:52;;;;;;;20.02;13.55;;;14.50;99.90;;;;;;4919241;29;20032;-76
2023/05/16 02:05:18;;;;;;;21.73;13.95;;;14.50;99.90;;;;;;4919131;29;20071;-76
2023/05/16 02:07:44;;;;;;;21.35;14.98;;;14.50;99.90;;;;;;4936717;29;20023;-73
2023/05/16 02:10:11;;;;;;;26.27;15.93;;;14.50;99.90;;;;;;4918903;29;20091;-74
2023/05/16 02:12:37;;;;;;;24.30;13.75;;;14.50;99.90;;;;;;4919059;29;20115;-75
2023/05/16 02:15:03;;;;;;;27.23;14.27;;;14.60;99.90;;;;;;4917857;29;20138;-76
2023/05/16 02:17:29;;;;;;;23.85;15.18;;;14.60;99.90;;;;;;4920421;29;20020;-74
2023/05/16 02:19:56;;;;;;;19.38;13.25;;;14.50;99.90;;;;;;4919434;29;20137;-74
2023/05/16 02:22:22;;;;;;;21.42;14.77;;;14.50;99.90;;;;;;4923661;29;20039;-75
2023/05/16 02:24:48;;;;;;;21.50;14.63;;;14.50;99.90;;;;;;4939458;29;20043;-75
2023/05/16 02:27:14;;;;;;;25.25;13.73;;;14.50;99.90;;;;;;4939128;29;20116;-75
2023/05/16 02:29:39;;;;;;;19.35;13.15;;;14.50;99.90;;;;;;4938720;29;20495;-78
2023/05/16 02:32:05;;;;;;;22.00;14.98;;;14.50;99.90;;;;;;4956538;29;20382;-77
2023/05/16 02:34:31;;;;;;;20.15;13.95;;;14.50;99.90;;;;;;4956602;29;20047;-77
2023/05/16 02:36:57;;;;;;;25.83;13.52;;;14.50;99.90;;;;;;4938596;29;20051;-77
2023/05/16 02:39:23;;;;;;;19.95;13.90;;;14.60;99.90;;;;;;4939109;29;20082;-76
2023/05/16 02:41:50;;;;;;;21.35;13.60;;;14.60;99.90;;;;;;4939027;29;20048;-77
2023/05/16 02:44:16;;;;;;;22.15;14.10;;;14.70;99.90;;;;;;4938917;29;20046;-78
2023/05/16 02:46:43;;;;;;;21.40;13.05;;;14.80;99.90;;;;;;4938565;29;20043;-76
2023/05/16 02:49:09;;;;;;;20.70;13.63;;;14.80;99.90;;;;;;4955267;28;20015;-77
2023/05/16 02:51:34;;;;;;;17.38;12.18;;;14.90;99.90;;;;;;4939126;29;20035;-75
2023/05/16 02:54:00;;;;;;;19.90;13.45;;;14.90;99.90;;;;;;4952966;29;20030;-75
2023/05/16 02:56:26;;;;;;;21.17;13.77;;;14.80;99.90;;;;;;4930502;29;20028;-75
2023/05/16 02:58:53;;;;;;;22.38;13.65;;;14.90;99.90;;;;;;4955756;29;20019;-77
2023/05/16 03:01:19;;;;;;;18.58;12.57;;;14.90;99.90;;;;;;4938737;29;20027;-76
2023/05/16 03:03:45;;;;;;;19.55;13.48;;;14.90;99.90;;;;;;4933525;29;20034;-75
2023/05/16 03:06:11;;;;;;;30.85;12.80;;;14.90;99.90;;;;;;4939011;29;20079;-75
2023/05/16 03:08:37;;;;;;;19.98;14.00;;;15.00;99.90;;;;;;4938444;29;20027;-77
2023/05/16 03:11:03;;;;;;;21.05;13.05;;;15.00;99.90;;;;;;4938641;29;20027;-75
2023/05/16 03:13:29;;;;;;;25.83;13.57;;;14.90;99.90;;;;;;4956041;29;20460;-77
2023/05/16 03:15:57;;;;;;;18.05;12.27;;;14.90;99.90;;;;;;4955748;29;20086;-76
2023/05/16 03:18:23;;;;;;;18.27;12.45;;;15.00;99.90;;;;;;4955924;29;20019;-76
2023/05/16 03:20:51;;;;;;;18.98;11.85;;;15.00;99.90;;;;;;4938396;29;20077;-75
2023/05/16 03:23:19;;;;;;;16.15;11.13;;;15.10;99.90;;;;;;4955531;29;20027;-76
2023/05/16 03:25:45;;;;;;;20.88;11.32;;;15.00;99.90;;;;;;4938411;29;20019;-76
2023/05/16 03:28:11;;;;;;;19.80;13.25;;;15.10;99.90;;;;;;4937991;29;20087;-75
2023/05/16 03:30:37;;;;;;;19.58;11.75;;;15.10;99.90;;;;;;4938255;29;20023;-75
2023/05/16 03:33:03;;;;;;;16.58;11.85;;;15.20;99.90;;;;;;4936525;29;20402;-75
2023/05/16 03:35:33;;;;;;;21.30;12.05;;;15.10;99.90;;;;;;4954884;29;20031;-77
2023/05/16 03:37:59;;;;;;;15.30;10.48;;;15.10;99.90;;;;;;4937522;29;20554;-76
2023/05/16 03:40:25;;;;;;;23.17;12.40;;;15.10;99.90;;;;;;4937614;29;20118;-77
2023/05/16 03:42:51;;;;;;;19.23;12.65;;;15.10;99.90;;;;;;4955100;29;20487;-77
2023/05/16 03:45:17;;;;;;;19.88;13.18;;;15.10;99.90;;;;;;4955237;29;20042;-77
2023/05/16 03:47:43;;;;;;;18.42;12.35;;;15.10;99.90;;;;;;4955067;29;20034;-76
2023/05/16 03:50:09;;;;;;;20.52;12.43;;;15.00;99.90;;;;;;4955362;29;20379;-76
2023/05/16 03:52:35;;;;;;;17.40;12.27;;;15.00;99.90;;;;;;4954893;29;20046;-76
2023/05/16 03:55:03;;;;;;;20.27;12.57;;;14.80;99.90;;;;;;4937518;29;20047;-75
2023/05/16 03:57:32;;;;;;;18.45;12.52;;;14.90;99.90;;;;;;4937712;29;20387;-74
2023/05/16 03:59:58;;;;;;;19.90;13.75;;;14.90;99.90;;;;;;4954241;28;20031;-75
2023/05/16 04:02:24;;;;;;;19.08;11.82;;;14.80;99.90;;;;;;4930596;29;20027;-76
2023/05/16 04:04:50;;;;;;;21.52;13.38;;;14.90;99.90;;;;;;4942831;29;20034;-76
2023/05/16 04:07:16;;;;;;;19.80;11.40;;;14.90;99.90;;;;;;4954485;29;20027;-74
2023/05/16 04:09:42;;;;;;;19.92;13.13;;;14.90;99.90;;;;;;4954661;29;20039;-75
2023/05/16 04:12:08;;;;;;;20.25;12.98;;;14.90;99.90;;;;;;4954937;29;20016;-77
2023/05/16 04:14:34;;;;;;;23.48;14.05;;;14.90;99.90;;;;;;4954602;29;20102;-76
2023/05/16 04:17:00;;;;;;;19.98;14.77;;;14.90;99.90;;;;;;4951934;29;20098;-74
2023/05/16 04:19:26;;;;;;;21.70;14.88;;;14.90;99.90;;;;;;4961496;28;20081;-75
2023/05/16 04:21:52;;;;;;;21.63;13.88;;;14.80;99.90;;;;;;4944143;28;20023;-73
2023/05/16 04:24:17;;;;;;;23.15;14.68;;;14.80;99.90;;;;;;4954302;29;20087;-73
2023/05/16 04:26:44;;;;;;;21.42;14.63;;;14.70;99.90;;;;;;4954349;29;20118;-76
2023/05/16 04:29:10;;;;;;;21.40;14.88;;;14.70;99.90;;;;;;4937166;29;20055;-76
2023/05/16 04:31:36;;;;;;;21.95;14.82;;;14.70;99.90;;;;;;4954303;29;20039;-73
2023/05/16 04:34:02;;;;;;;21.20;13.60;;;14.80;99.90;;;;;;4937049;29;20041;-75
2023/05/16 04:36:29;;;;;;;23.48;13.73;;;14.80;99.90;;;;;;4953962;29;20110;-74
2023/05/16 04:38:55;;;;;;;21.13;14.32;;;14.80;99.90;;;;;;4953906;29;20057;-77
2023/05/16 04:41:24;;;;;;;18.85;12.80;;;14.90;99.90;;;;;;4953879;29;20101;-75
2023/05/16 04:43:50;;;;;;;23.33;14.98;;;15.00;99.90;;;;;;4954818;29;20038;-75
2023/05/16 04:46:16;;;;;;;20.70;14.23;;;15.00;99.90;;;;;;4954233;29;20104;-74
2023/05/16 04:48:42;;;;;;;21.80;13.23;;;15.00;99.90;;;;;;4954104;29;20027;-76
2023/05/16 04:51:08;;;;;;;19.52;13.20;;;15.10;99.90;;;;;;4949900;29;20110;-76
2023/05/16 04:53:34;;;;;;;20.25;13.68;;;15.20;99.90;;;;;;4952719;29;20098;-75
2023/05/16 04:55:59;;;;;;;23.70;13.93;;;15.20;99.90;;;;;;4954146;29;20042;-76
2023/05/16 04:58:26;;;;;;;20.30;14.35;;;15.20;99.90;;;;;;4954049;29;20024;-76
2023/05/16 05:00:51;;;;;;;21.35;13.70;;;15.20;99.90;;;;;;4954620;29;20037;-74
2023/05/16 05:03:17;;;;;;;19.17;12.68;;;15.20;99.90;;;;;;4953845;29;20110;-74
2023/05/16 05:05:44;;;;;;;21.70;14.23;;;15.20;99.90;;;;;;4954300;29;20023;-74
2023/05/16 05:08:10;;;;;;;21.45;13.88;;;15.20;99.90;;;;;;4953692;29;20552;-74
2023/05/16 05:10:36;;;;;;;17.67;13.18;;;15.30;99.90;;;;;;4954061;29;20027;-75
2023/05/16 05:13:02;;;;;;;18.25;13.32;;;15.30;99.90;;;;;;4953741;28;20448;-75
2023/05/16 05:15:28;;;;;;;21.30;13.10;;;15.30;99.90;;;;;;4952898;29;20146;-74
2023/05/16 05:17:53;;;;;;;17.52;12.48;;;15.40;99.90;;;;;;4952810;29;20027;-77
2023/05/16 05:20:20;;;;;;;21.10;12.40;;;15.40;99.90;;;;;;4952322;29;20049;-74
2023/05/16 05:22:46;;;;;;;20.95;12.93;;;15.40;99.90;;;;;;4952810;29;20035;-77
2023/05/16 05:25:12;;;;;;;18.35;12.90;;;15.40;99.90;;;;;;4953054;29;20074;-75
2023/05/16 05:27:38;;;;;;;18.58;12.02;;;15.40;99.90;;;;;;4953423;29;20047;-77
2023/05/16 05:30:04;;;;;;;24.77;12.88;;;15.40;99.90;;;;;;4953252;29;20051;-75
2023/05/16 05:32:30;;;;;;;17.85;12.25;;;15.40;99.90;;;;;;4954052;28;20024;-74
2023/05/16 05:34:56;;;;;;;21.98;13.30;;;15.40;99.90;;;;;;4953818;29;20043;-75
2023/05/16 05:37:22;;;;;;;21.85;13.23;;;15.40;99.90;;;;;;4952314;29;20034;-76
2023/05/16 05:39:48;;;;;;;18.65;11.55;;;15.50;99.90;;;;;;4936834;29;20032;-75
2023/05/16 05:42:14;;;;;;;21.70;12.30;;;15.60;99.90;;;;;;4935412;29;20141;-76
2023/05/16 05:44:40;;;;;;;19.67;13.75;;;15.60;99.90;;;;;;4935946;29;20023;-75
2023/05/16 05:47:06;;;;;;;19.58;13.88;;;15.70;99.90;;;;;;4949923;29;20054;-74
2023/05/16 05:49:32;;;;;;;19.13;12.35;;;15.70;99.90;;;;;;4953735;29;20097;-75
2023/05/16 05:51:58;;;;;;;20.35;12.77;;;15.80;99.90;;;;;;4953282;29;20115;-75
2023/05/16 05:54:24;;;;;;;18.48;11.90;;;15.90;99.90;;;;;;4953858;29;20047;-74
2023/05/16 05:56:50;;;;;;;19.67;12.77;;;16.00;99.90;;;;;;4952979;29;20049;-76
2023/05/16 05:59:16;;;;;;;17.60;12.07;;;16.00;99.90;;;;;;4953707;29;20034;-74
2023/05/16 06:01:45;;;;;;;21.33;11.57;;;16.10;99.90;;;;;;4953419;29;20030;-74
2023/05/16 06:04:11;;;;;;;17.17;12.13;;;16.20;99.90;;;;;;4936509;29;20043;-75
2023/05/16 06:06:38;;;;;;;20.95;11.98;;;16.30;99.90;;;;;;4953360;29;20027;-75
2023/05/16 06:09:05;;;;;;;22.35;11.80;;;16.30;99.90;;;;;;4953363;29;20035;-74
2023/05/16 06:11:30;;;;;;;18.13;11.68;;;16.30;99.90;;;;;;4953710;29;20034;-75
2023/05/16 06:13:56;;;;;;;19.60;11.48;;;16.40;99.90;;;;;;4953404;29;20390;-75
2023/05/16 06:16:25;;;;;;;16.67;10.38;;;16.50;99.90;;;;;;4953103;29;20027;-76
2023/05/16 06:18:51;;;;;;;19.67;11.18;;;16.50;99.90;;;;;;4936079;29;20051;-77
2023/05/16 06:21:17;;;;;;;21.30;10.70;;;16.60;99.90;;;;;;4953441;29;20027;-76
2023/05/16 06:23:42;;;;;;;17.95;10.07;;;16.70;99.90;;;;;;4936230;29;20046;-76
2023/05/16 06:26:08;;;;;;;16.13;10.27;;;16.70;99.90;;;;;;4956772;29;20106;-74
2023/05/16 06:28:34;;;;;;;18.85;10.52;;;16.70;99.90;;;;;;4956891;29;20526;-74
2023/05/16 06:31:00;;;;;;;16.52;10.80;;;16.60;99.90;;;;;;4956860;29;20057;-76
2023/05/16 06:33:26;;;;;;;19.08;11.23;;;16.70;99.90;;;;;;4956665;29;20035;-75
2023/05/16 06:35:51;;;;;;;19.25;10.55;;;16.80;99.90;;;;;;4956379;29;20067;-75
2023/05/16 06:38:20;;;;;;;16.48;10.55;;;16.80;99.90;;;;;;4956676;29;20475;-76
2023/05/16 06:40:46;;;;;;;20.33;10.27;;;16.80;99.90;;;;;;4956285;29;20036;-76
2023/05/16 06:43:12;;;;;;;17.98;11.00;;;16.70;99.90;;;;;;4956273;29;20024;-74
2023/05/16 06:45:38;;;;;;;17.00;8.35;;;16.60;99.90;;;;;;4955918;29;20054;-74
2023/05/16 06:48:06;;;;;;;16.45;9.85;;;16.60;99.90;;;;;;4956627;29;20031;-75
2023/05/16 06:50:32;;;;;;;14.65;9.43;;;16.50;99.90;;;;;;4956005;29;20118;-76
2023/05/16 06:52:57;;;;;;;19.50;10.63;;;16.60;99.90;;;;;;4956482;29;20171;-76
2023/05/16 06:55:23;;;;;;;20.25;10.23;;;16.60;99.90;;;;;;4955680;29;20035;-75
2023/05/16 06:57:49;;;;;;;16.02;9.90;;;16.70;99.90;;;;;;4938841;29;20039;-76
2023/05/16 07:00:16;;;;;;;17.23;9.98;;;16.70;99.90;;;;;;4956302;29;20039;-74
2023/05/16 07:02:41;;;;;;;14.50;10.50;;;16.70;99.90;;;;;;4956096;29;20030;-74
2023/05/16 07:05:07;;;;;;;17.42;10.57;;;16.50;99.90;;;;;;4956085;29;20118;-75
2023/05/16 07:07:34;;;;;;;15.90;10.50;;;16.70;99.90;;;;;;4955942;29;20015;-74
2023/05/16 07:10:00;;;;;;;18.67;11.10;;;16.70;99.90;;;;;;4956116;29;20031;-75
2023/05/16 07:12:25;;;;;;;16.70;11.55;;;16.80;99.90;;;;;;4956053;29;20023;-74
2023/05/16 07:14:51;;;;;;;17.73;10.40;;;16.80;99.90;;;;;;4956000;29;20039;-76
2023/05/16 07:17:17;;;;;;;19.95;11.77;;;16.80;99.90;;;;;;4937705;29;20054;-75
2023/05/16 07:19:43;;;;;;;20.27;10.77;;;16.80;99.90;;;;;;4955751;29;20114;-74
2023/05/16 07:22:09;;;;;;;15.82;9.60;;;16.80;99.90;;;;;;4955955;29;20459;-77
2023/05/16 07:24:35;;;;;;;17.73;11.27;;;16.90;99.90;;;;;;4955352;29;20112;-75
2023/05/16 07:27:01;;;;;;;15.65;9.75;;;17.10;99.90;;;;;;4955662;29;20031;-75
2023/05/16 07:29:27;;;;;;;16.15;9.95;;;17.10;99.90;;;;;;4955310;29;20027;-76
2023/05/16 07:31:53;;;;;;;16.48;10.48;;;17.30;99.90;;;;;;4955795;29;20031;-75
2023/05/16 07:34:19;;;;;;;15.13;9.65;;;17.40;99.90;;;;;;4954961;28;20027;-76
2023/05/16 07:36:45;;;;;;;13.98;8.70;;;17.40;99.90;;;;;;4955694;29;20035;-75
2023/05/16 07:39:11;;;;;;;13.48;8.60;;;17.60;99.90;;;;;;4955242;29;20077;-76
2023/05/16 07:41:36;;;;;;;12.85;8.07;;;17.70;99.90;;;;;;4955175;29;20122;-74
2023/05/16 07:44:02;;;;;;;12.07;7.28;;;17.60;99.90;;;;;;4955185;29;20467;-75
2023/05/16 07:46:28;;;;;;;12.52;8.68;;;17.90;99.90;;;;;;4938268;29;20030;-76
2023/05/16 07:48:54;;;;;;;14.55;8.98;;;18.20;99.90;;;;;;4955119;29;20498;-76
2023/05/16 07:51:20;;;;;;;15.52;9.10;;;18.50;99.90;;;;;;4955400;29;20027;-74
2023/05/16 07:53:45;;;;;;;13.55;7.82;;;18.60;99.90;;;;;;4954800;29;20130;-75
2023/05/16 07:56:11;;;;;;;12.60;7.80;;;18.60;99.90;;;;;;4954896;29;20039;-75
2023/05/16 07:58:38;;;;;;;15.50;7.35;;;18.50;99.90;;;;;;4954995;29;20042;-76
2023/05/16 08:01:04;;;;;;;13.88;8.13;;;18.60;99.90;;;;;;4954965;29;20053;-74
2023/05/16 08:03:30;;;;;;;13.70;7.45;;;18.80;99.90;;;;;;4955274;29;20031;-75
2023/05/16 08:05:56;;;;;;;13.75;7.28;;;18.70;99.90;;;;;;4955102;29;20094;-75
2023/05/16 08:08:21;;;;;;;15.35;8.02;;;18.70;99.90;;;;;;4937821;29;20385;-75
2023/05/16 08:10:47;;;;;;;10.45;7.00;;;18.70;99.90;;;;;;4954744;29;20472;-75
2023/05/16 08:13:13;;;;;;;11.98;8.15;;;18.60;99.90;;;;;;4924605;29;20046;-75
2023/05/16 08:15:39;;;;;;;13.68;7.95;;;18.60;99.90;;;;;;4954378;29;20058;-74
2023/05/16 08:18:14;;;;;;;17.25;8.45;;;18.50;99.90;;;;;;4954803;29;20027;-75
2023/05/16 08:20:41;;;;;;;13.13;7.53;;;18.40;99.90;;;;;;4954636;29;20031;-74
2023/05/16 08:23:07;;;;;;;11.07;7.32;;;18.40;99.90;;;;;;4954522;29;20463;-76
2023/05/16 08:25:33;;;;;;;16.48;7.53;;;18.30;99.90;;;;;;4954793;29;20062;-75
2023/05/16 08:28:00;;;;;;;15.85;8.18;;;18.20;99.90;;;;;;4954313;29;20050;-74
2023/05/16 08:30:27;;;;;;;15.75;9.20;;;18.10;99.90;;;;;;4937406;29;20039;-74
2023/05/16 08:32:53;;;;;;;13.25;8.20;;;18.10;99.90;;;;;;4954280;29;20468;-76
2023/05/16 08:35:19;;;;;;;11.68;7.88;;;18.00;99.90;;;;;;4954789;29;20102;-77
2023/05/16 08:37:44;;;;;;;17.63;9.32;;;17.90;99.90;;;;;;4954199;29;20095;-76
2023/05/16 08:40:11;;;;;;;11.40;8.02;;;17.90;99.90;;;;;;4954353;29;20486;-74
2023/05/16 08:42:38;;;;;;;14.98;9.02;;;17.90;99.90;;;;;;4935004;29;20507;-75
2023/05/16 08:45:05;;;;;;;13.25;8.25;;;17.90;99.90;;;;;;4935130;29;20028;-75
2023/05/16 08:47:31;;;;;;;13.43;8.55;;;17.90;99.90;;;;;;4934935;29;20472;-76
2023/05/16 08:50:03;;;;;;;14.50;8.27;;;17.90;99.90;;;;;;4934847;29;20480;-76
2023/05/16 08:52:30;;;;;;;18.30;8.63;;;18.00;99.90;;;;;;4934997;29;20046;-74
2023/05/16 08:55:06;;;;;;;12.55;7.07;;;18.00;99.90;;;;;;4934802;29;20460;-76
2023/05/16 08:57:32;;;;;;;14.85;8.38;;;18.00;99.90;;;;;;4934785;29;20035;-76
2023/05/16 08:59:59;;;;;;;12.00;7.70;;;18.00;99.90;;;;;;4935161;29;20051;-75
2023/05/16 09:02:29;;;;;;;19.58;9.63;;;18.00;99.90;;;;;;4934906;29;20040;-76
2023/05/16 09:04:56;;;;;;;18.63;9.77;;;18.00;99.90;;;;;;4934880;29;20082;-75
2023/05/16 09:07:22;;;;;;;24.50;9.43;;;18.00;99.90;;;;;;4934819;29;20189;-77
2023/05/16 09:09:48;;;;;;;16.23;8.80;;;18.00;99.90;;;;;;4934668;29;20190;-76
2023/05/16 09:12:14;;;;;;;14.15;9.25;;;18.00;99.90;;;;;;4934372;29;20109;-76
2023/05/16 09:14:41;;;;;;;16.33;8.63;;;18.00;99.90;;;;;;4934842;29;20039;-77
2023/05/16 09:17:08;;;;;;;14.27;8.98;;;17.90;99.90;;;;;;4934671;29;20472;-76
2023/05/16 09:19:39;;;;;;;13.18;7.55;;;18.00;99.90;;;;;;4934628;29;20055;-75
2023/05/16 09:22:08;;;;;;;16.75;9.00;;;17.90;99.90;;;;;;4935046;29;20080;-74
2023/05/16 09:24:38;;;;;;;19.85;9.10;;;17.90;99.90;;;;;;4934455;29;20444;-75
2023/05/16 09:27:12;;;;;;;13.90;8.18;;;17.90;99.90;;;;;;4934868;29;20480;-75
2023/05/16 09:29:49;;;;;;;13.75;8.25;;;17.90;99.90;;;;;;4934517;29;20491;-75
2023/05/16 09:32:16;;;;;;;15.00;8.20;;;18.00;99.90;;;;;;4934592;29;20039;-74
2023/05/16 09:34:50;;;;;;;15.10;7.78;;;18.20;99.90;;;;;;4934922;29;20091;-73
2023/05/16 09:37:17;;;;;;;13.60;8.02;;;18.20;99.90;;;;;;4934422;29;20023;-77
2023/05/16 09:39:51;;;;;;;13.88;8.00;;;18.10;99.90;;;;;;4934472;29;20142;-74
2023/05/16 09:42:19;;;;;;;16.38;8.48;;;18.20;99.90;;;;;;4935892;29;20102;-73
2023/05/16 09:44:47;;;;;;;15.63;8.80;;;18.40;99.90;;;;;;4953812;29;20050;-74
2023/05/16 09:47:15;;;;;;;13.02;8.40;;;18.50;99.90;;;;;;4953826;29;20037;-75
2023/05/16 09:49:41;;;;;;;17.25;8.45;;;18.60;99.90;;;;;;4953574;29;20035;-76
2023/05/16 09:52:08;;;;;;;14.70;8.95;;;18.60;99.90;;;;;;4953637;29;20024;-74
2023/05/16 09:54:34;;;;;;;11.85;7.22;;;18.60;99.90;;;;;;4953668;29;20066;-75
2023/05/16 09:57:00;;;;;;;12.45;7.25;;;18.70;99.90;;;;;;4953417;29;20086;-74
2023/05/16 09:59:30;;;;;;;12.77;7.82;;;18.70;99.90;;;;;;4955176;28;20016;-74
2023/05/16 10:02:00;;;;;;;14.60;7.65;;;18.70;99.90;;;;;;4957247;29;20118;-75
2023/05/16 10:04:26;;;;;;;13.77;8.80;;;18.70;99.90;;;;;;4957052;29;20538;-74
2023/05/16 10:06:56;;;;;;;13.57;8.13;;;18.80;99.90;;;;;;4957079;29;20031;-74
2023/05/16 10:09:22;;;;;;;15.48;8.55;;;18.70;99.90;;;;;;4957100;29;20442;-75
2023/05/16 10:11:50;;;;;;;13.60;7.95;;;18.70;99.90;;;;;;4956716;29;20115;-76
2023/05/16 10:14:19;;;;;;;12.40;8.13;;;18.70;99.90;;;;;;4957136;29;20038;-75
2023/05/16 10:16:48;;;;;;;16.40;8.27;;;18.70;99.90;;;;;;4939552;29;20449;-74
2023/05/16 10:19:19;;;;;;;16.48;8.63;;;18.80;99.90;;;;;;4957148;29;20094;-75
2023/05/16 10:21:51;;;;;;;12.75;8.20;;;18.70;99.90;;;;;;4956760;29;20479;-74
2023/05/16 10:24:22;;;;;;;15.88;8.93;;;18.70;99.90;;;;;;4956516;29;20467;-73
2023/05/16 10:26:50;;;;;;;13.65;7.00;;;18.70;99.90;;;;;;4957001;29;20023;-76
2023/05/16 10:29:17;;;;;;;15.10;8.68;;;18.70;99.90;;;;;;4956640;29;20364;-76
2023/05/16 10:31:43;;;;;;;13.23;7.45;;;18.60;99.90;;;;;;4955792;29;20035;-76
2023/05/16 10:34:09;;;;;;;13.40;8.07;;;18.60;99.90;;;;;;4956158;29;20027;-75
2023/05/16 10:36:36;;;;;;;16.38;7.60;;;18.60;99.90;;;;;;4957170;29;20039;-74
2023/05/16 10:39:03;;;;;;;13.63;7.57;;;18.60;99.90;;;;;;4956454;29;20019;-76
2023/05/16 10:41:29;;;;;;;13.45;6.85;;;18.50;99.90;;;;;;4956324;29;20054;-75
2023/05/16 10:43:57;;;;;;;18.23;7.63;;;18.50;99.90;;;;;;4956138;29;20039;-75
2023/05/16 10:46:23;;;;;;;11.73;6.78;;;18.50;99.90;;;;;;4956795;29;20086;-76
2023/05/16 10:48:49;;;;;;;13.15;7.63;;;18.50;99.90;;;;;;4956035;29;20399;-75
2023/05/16 10:51:21;;;;;;;15.98;7.65;;;18.50;99.90;;;;;;4956007;29;20031;-75
2023/05/16 10:53:51;;;;;;;15.07;7.63;;;18.50;99.90;;;;;;4956314;29;20098;-74
2023/05/16 10:56:23;;;;;;;16.15;8.15;;;18.50;99.90;;;;;;4955940;29;20399;-77
2023/05/16 10:58:49;;;;;;;14.60;7.85;;;18.40;99.90;;;;;;4955853;29;20050;-73
2023/05/16 11:01:28;;;;;;;12.52;7.25;;;18.40;99.90;;;;;;4956035;29;20483;-76
2023/05/16 11:03:57;;;;;;;18.45;8.60;;;18.40;99.90;;;;;;4950613;29;20035;-74
2023/05/16 11:06:27;;;;;;;14.38;7.78;;;18.30;99.90;;;;;;4948799;29;20019;-77
2023/05/16 11:09:05;;;;;;;14.32;8.63;;;18.30;99.90;;;;;;4955604;29;20197;-74
2023/05/16 11:11:40;;;;;;;18.08;8.65;;;18.30;99.90;;;;;;4955194;29;20125;-76
2023/05/16 11:14:06;;;;;;;14.65;7.43;;;18.30;99.90;;;;;;4955803;29;20047;-76
2023/05/16 11:16:34;;;;;;;14.27;7.57;;;18.30;99.90;;;;;;4954146;29;20419;-76
2023/05/16 11:19:07;;;;;;;16.48;7.97;;;18.20;99.90;;;;;;4955707;29;20027;-76
2023/05/16 11:22:08;;;;;;;11.40;6.85;;;18.20;99.90;;;;;;4955466;29;20039;-73
2023/05/16 11:24:36;;;;;;;11.98;7.40;;;18.30;99.90;;;;;;4919907;29;20122;-74
2023/05/16 11:27:03;;;;;;;14.52;6.63;;;18.20;99.90;;;;;;4955546;29;20471;-76
2023/05/16 11:29:36;;;;;;;13.63;7.72;;;18.20;99.90;;;;;;4955244;29;20042;-74
2023/05/16 11:32:04;;;;;;;16.67;7.30;;;18.20;99.90;;;;;;4955379;29;20387;-74
2023/05/16 11:34:31;;;;;;;15.85;7.20;;;18.20;99.90;;;;;;4954985;29;20419;-75
2023/05/16 11:36:58;;;;;;;12.52;6.85;;;18.20;99.90;;;;;;4955200;29;20086;-75
2023/05/16 11:39:24;;;;;;;11.00;6.20;;;18.20;99.90;;;;;;4954935;29;20028;-75
2023/05/16 11:41:52;;;;;;;10.68;6.35;;;18.30;99.90;;;;;;4954932;29;20098;-75
2023/05/16 11:44:18;;;;;;;17.92;7.50;;;18.30;99.90;;;;;;4955202;29;20032;-77
2023/05/16 11:46:45;;;;;;;14.85;7.13;;;18.30;99.90;;;;;;4955352;29;20390;-74
2023/05/16 11:49:11;;;;;;;16.98;6.47;;;18.30;99.90;;;;;;4955103;29;20031;-74
2023/05/16 11:51:38;;;;;;;12.02;6.47;;;18.30;99.90;;;;;;4955375;29;20031;-75
2023/05/16 11:54:04;;;;;;;12.98;6.43;;;18.40;99.90;;;;;;4954701;29;20487;-74
2023/05/16 11:56:31;;;;;;;13.25;5.95;;;18.50;99.90;;;;;;4955421;29;20039;-75
2023/05/16 11:59:00;;;;;;;12.55;6.65;;;18.50;99.90;;;;;;4954574;29;20352;-75
2023/05/16 12:01:36;;;;;;;13.10;7.22;;;18.60;99.90;;;;;;4955064;29;20024;-77
2023/05/16 12:04:13;;;;;;;11.27;5.93;;;18.60;99.90;;;;;;4954789;29;20118;-74
2023/05/16 12:06:42;;;;;;;14.13;7.07;;;18.70;99.90;;;;;;4954454;29;20035;-73
2023/05/16 12:09:12;;;;;;;12.52;6.03;;;18.80;99.90;;;;;;4954769;29;20074;-74
2023/05/16 12:11:43;;;;;;;12.75;7.10;;;18.80;99.90;;;;;;4954854;29;20106;-78
2023/05/16 12:14:11;;;;;;;12.40;7.03;;;18.90;99.90;;;;;;4954721;29;20050;-79
2023/05/16 12:16:40;;;;;;;12.57;5.93;;;18.90;99.90;;;;;;4954609;29;20483;-77
2023/05/16 12:19:08;;;;;;;18.92;7.68;;;18.80;99.90;;;;;;4954359;29;20047;-75
2023/05/16 12:21:35;;;;;;;16.02;6.63;;;18.80;99.90;;;;;;4953691;28;20031;-78
2023/05/16 12:24:01;;;;;;;13.35;6.70;;;;;;;;;;4954308;29;20035;-77
2023/05/16 12:26:30;;;;;;;12.27;7.03;;;19.10;99.90;;;;;;4954797;29;20015;-76
2023/05/16 12:29:02;;;;;;;11.80;5.85;;;19.30;99.90;;;;;;4954246;29;20028;-76
2023/05/16 12:31:31;;;;;;;12.47;6.37;;;19.50;99.90;;;;;;4954787;29;20455;-75